Time;durP1;ratioP1;P1;durP2;ratioP2;P2;SDS_P1;SDS_P2;PMS_P1;PMS_P2;Temp;Humidity;BMP_temperature;BMP_pressure;BME280_temperature;BME280_humidity;BME280_pressure;Samples;Min_cycle;Max_cycle;Signal;HPM_P1;HPM_P2
2023/06/11 00:00:57;;;;;;;;;;;;;;;22.49;62.39;98919.41;5091322;28;19962;-42
2023/06/11 00:03:23;;;;;;;;;;;;;;;22.65;62.39;98916.03;5091628;28;19908;-41
2023/06/11 00:05:48;;;;;;;;;;;;;;;22.78;61.51;98919.84;5091548;28;20036;-41
2023/06/11 00:08:13;;;;;;;;;;;;;;;22.50;63.06;98921.78;5091200;28;20316;-42
2023/06/11 00:10:39;;;;;;;;;;;;;;;22.39;62.60;98917.66;5091389;28;19958;-42
2023/06/11 00:13:04;;;;;;;;;;;;;;;22.72;62.19;98921.06;5091413;28;20433;-42
2023/06/11 00:15:29;;;;;;;;;;;;;;;22.93;61.53;98920.63;5091119;28;19916;-42
2023/06/11 00:17:55;;;;;;;;;;;;;;;23.42;59.78;98924.41;5091443;28;19912;-43
2023/06/11 00:20:20;;;;;;;;;;;;;;;23.54;58.88;98927.38;5091397;28;19927;-42
2023/06/11 00:22:46;;;;;;;;;;;;;;;23.54;59.49;98923.84;5091015;28;19959;-42
2023/06/11 00:25:11;;;;;;;;;;;;;;;23.60;58.72;98922.59;5091248;28;19920;-43
2023/06/11 00:27:37;;;;;;;;;;;;;;;23.24;59.30;98926.19;5091296;28;19938;-42
2023/06/11 00:30:04;;;;;;;;;;;;;;;23.34;59.20;98920.53;5090990;28;20268;-42
2023/06/11 00:32:33;;;;;;;;;;;;;;;23.11;59.48;98919.69;5090735;28;19993;-42
2023/06/11 00:34:59;;;;;;;;;;;;;;;22.94;60.27;98922.22;5091087;28;19947;-42
2023/06/11 00:37:26;;;;;;;;;;;;;;;22.47;61.93;98918.91;5091094;28;19970;-41
2023/06/11 00:39:51;;;;;;;;;;;;;;;22.27;61.72;98920.09;5091048;28;20071;-42
2023/06/11 00:42:19;;;;;;;;;;;;;;;22.57;61.00;98922.19;5090896;28;20340;-41
2023/06/11 00:44:45;;;;;;;;;;;;;;;22.92;59.99;98916.28;5090711;28;19916;-43
2023/06/11 00:47:10;;;;;;;;;;;;;;;22.92;60.77;98921.72;5090892;28;19912;-42
2023/06/11 00:49:35;;;;;;;;;;;;;;;23.18;59.66;98921.97;5090865;28;19916;-42
2023/06/11 00:52:01;;;;;;;;;;;;;;;23.25;59.68;98916.13;5090915;28;19967;-42
2023/06/11 00:54:26;;;;;;;;;;;;;;;23.27;58.56;98925.56;5090636;28;20006;-42
2023/06/11 00:56:53;;;;;;;;;;;;;;;23.47;58.24;98927.00;5090575;28;19970;-42
2023/06/11 00:59:19;;;;;;;;;;;;;;;23.09;59.29;98934.66;5090291;28;19923;-42
2023/06/11 01:01:48;;;;;;;;;;;;;;;23.02;59.64;98935.06;5090506;28;19918;-41
2023/06/11 01:04:23;;;;;;;;;;;;;;;23.09;59.03;98934.66;5090695;28;20402;-43
2023/06/11 01:06:51;;;;;;;;;;;;;;;23.32;58.35;98936.31;5090884;28;19950;-42
2023/06/11 01:09:20;;;;;;;;;;;;;;;23.22;58.35;98933.81;5090605;28;19974;-42
2023/06/11 01:11:48;;;;;;;;;;;;;;;22.57;60.63;98929.53;5090344;28;20379;-42
2023/06/11 01:14:16;;;;;;;;;;;;;;;22.55;60.55;98935.25;5090558;28;19916;-43
2023/06/11 01:16:52;;;;;;;;;;;;;;;22.42;60.81;98931.41;5090557;28;20574;-42
2023/06/11 01:19:21;;;;;;;;;;;;;;;22.79;60.30;98928.78;5089800;28;19912;-42
2023/06/11 01:21:50;;;;;;;;;;;;;;;22.85;61.15;98922.16;5090363;28;19978;-42
2023/06/11 01:24:21;;;;;;;;;;;;;;;23.02;60.16;98927.72;5090340;28;20339;-43
2023/06/11 01:26:49;;;;;;;;;;;;;;;23.08;59.68;98922.22;5090396;28;20442;-42
2023/06/11 01:29:16;;;;;;;;;;;;;;;22.67;61.28;98926.59;5090235;28;19920;-42
2023/06/11 01:31:42;;;;;;;;;;;;;;;22.88;60.10;98934.28;5090366;28;19928;-42
2023/06/11 01:34:10;;;;;;;;;;;;;;;22.69;60.52;98934.41;5090406;28;19912;-42
2023/06/11 01:36:36;;;;;;;;;;;;;;;22.89;60.06;98939.41;5090590;28;19996;-42
2023/06/11 01:39:05;;;;;;;;;;;;;;;22.99;59.93;98936.47;5090678;28;19916;-42
2023/06/11 01:41:30;;;;;;;;;;;;;;;22.35;61.65;98943.78;5090417;28;19912;-41
2023/06/11 01:43:55;;;;;;;;;;;;;;;21.72;63.46;98940.53;5091385;28;19934;-41
2023/06/11 01:46:21;;;;;;;;;;;;;;;22.18;62.97;98942.44;5094300;28;20200;-42
2023/06/11 01:48:46;;;;;;;;;;;;;;;22.48;61.15;98934.84;5094186;28;20360;-41
2023/06/11 01:51:13;;;;;;;;;;;;;;;22.42;61.37;98941.47;5094199;28;19916;-42
2023/06/11 01:53:39;;;;;;;;;;;;;;;22.35;60.88;98943.78;5094382;28;20288;-42
2023/06/11 01:56:04;;;;;;;;;;;;;;;22.63;60.16;98950.78;5094280;28;19912;-42
2023/06/11 01:58:30;;;;;;;;;;;;;;;21.71;62.54;98949.75;5093955;28;19916;-42
2023/06/11 02:00:58;;;;;;;;;;;;;;;21.84;63.38;98956.31;5094311;28;19912;-42
2023/06/11 02:03:23;;;;;;;;;;;;;;;22.16;61.29;98963.63;5094123;28;20371;-42
2023/06/11 02:05:48;;;;;;;;;;;;;;;22.12;61.38;98954.44;5094050;28;19912;-42
2023/06/11 02:08:14;;;;;;;;;;;;;;;22.36;60.97;98951.59;5093771;28;19941;-42
2023/06/11 02:10:39;;;;;;;;;;;;;;;22.63;59.56;98953.50;5093688;28;20383;-42
2023/06/11 02:13:04;;;;;;;;;;;;;;;22.45;59.98;98952.50;5093884;28;19919;-42
2023/06/11 02:15:30;;;;;;;;;;;;;;;22.45;60.07;98954.44;5093787;28;19985;-42
2023/06/11 02:17:55;;;;;;;;;;;;;;;22.55;59.69;98953.41;5093645;28;19916;-42
2023/06/11 02:20:20;;;;;;;;;;;;;;;22.67;59.30;98951.00;5093412;28;19980;-42
2023/06/11 02:22:46;;;;;;;;;;;;;;;22.37;61.43;98949.69;5093187;28;20011;-42
2023/06/11 02:25:11;;;;;;;;;;;;;;;22.45;60.41;98957.94;5093566;28;19951;-42
2023/06/11 02:27:37;;;;;;;;;;;;;;;22.45;60.49;98947.09;5093387;28;19919;-41
2023/06/11 02:30:02;;;;;;;;;;;;;;;22.73;59.04;98948.97;5093771;28;19967;-42
2023/06/11 02:32:27;;;;;;;;;;;;;;;22.61;59.54;98954.91;5093181;28;19924;-42
2023/06/11 02:34:53;;;;;;;;;;;;;;;22.48;59.94;98961.94;5092992;28;20002;-42
2023/06/11 02:37:18;;;;;;;;;;;;;;;22.72;59.39;98959.03;5093449;28;19912;-42
2023/06/11 02:39:43;;;;;;;;;;;;;;;22.56;59.87;98952.31;5093205;28;20004;-42
2023/06/11 02:42:09;;;;;;;;;;;;;;;22.56;59.65;98958.53;5093081;28;20355;-42
2023/06/11 02:44:34;;;;;;;;;;;;;;;22.49;60.74;98955.44;5093035;28;19919;-42
2023/06/11 02:47:00;;;;;;;;;;;;;;;22.69;59.24;98956.13;5093340;28;20399;-43
2023/06/11 02:49:25;;;;;;;;;;;;;;;22.60;59.52;98956.84;5093324;28;19916;-42
2023/06/11 02:51:50;;;;;;;;;;;;;;;22.36;60.40;98957.03;5093668;28;20049;-42
2023/06/11 02:54:16;;;;;;;;;;;;;;;22.68;59.48;98958.03;5093695;28;19912;-42
2023/06/11 02:56:41;;;;;;;;;;;;;;;22.96;58.14;98963.41;5093641;28;19916;-42
2023/06/11 02:59:06;;;;;;;;;;;;;;;22.84;58.60;98969.34;5093447;28;20269;-42
2023/06/11 03:01:32;;;;;;;;;;;;;;;22.95;57.81;98970.75;5093606;28;19920;-42
2023/06/11 03:03:57;;;;;;;;;;;;;;;22.88;58.66;98972.28;5093647;28;19912;-42
2023/06/11 03:06:22;;;;;;;;;;;;;;;22.97;58.20;98978.59;5093637;28;19912;-42
2023/06/11 03:08:48;;;;;;;;;;;;;;;23.15;57.65;98974.16;5093073;28;20031;-42
2023/06/11 03:11:14;;;;;;;;;;;;;;;22.92;58.88;98975.97;5093445;28;19912;-41
2023/06/11 03:13:39;;;;;;;;;;;;;;;22.61;59.48;98974.69;5093715;28;19916;-42
2023/06/11 03:16:05;;;;;;;;;;;;;;;22.87;59.13;98974.19;5093052;28;19912;-41
2023/06/11 03:18:30;;;;;;;;;;;;;;;23.03;58.22;98978.19;5093253;28;19912;-41
2023/06/11 03:20:55;;;;;;;;;;;;;;;22.93;58.83;98972.16;5093201;28;19919;-41
2023/06/11 03:23:20;;;;;;;;;;;;;;;22.91;60.02;98975.19;5093237;28;19916;-41
2023/06/11 03:25:46;;;;;;;;;;;;;;;22.78;59.41;98971.38;5092990;28;20011;-42
2023/06/11 03:28:11;;;;;;;;;;;;;;;22.48;59.87;98975.50;5093035;28;19920;-40
2023/06/11 03:30:36;;;;;;;;;;;;;;;22.05;62.48;98976.53;5092811;28;19923;-40
2023/06/11 03:33:02;;;;;;;;;;;;;;;21.99;62.36;98979.59;5092748;28;20330;-40
2023/06/11 03:35:27;;;;;;;;;;;;;;;22.33;61.21;98981.22;5093012;28;19912;-40
2023/06/11 03:37:52;;;;;;;;;;;;;;;22.57;60.19;98979.13;5092969;28;20056;-41
2023/06/11 03:40:18;;;;;;;;;;;;;;;22.45;60.98;98984.25;5092827;28;19912;-40
2023/06/11 03:42:43;;;;;;;;;;;;;;;22.20;61.62;98986.28;5092722;28;19919;-41
2023/06/11 03:45:08;;;;;;;;;;;;;;;22.38;61.28;98981.91;5093021;28;19912;-41
2023/06/11 03:47:34;;;;;;;;;;;;;;;22.56;60.92;98974.81;5092443;28;19919;-41
2023/06/11 03:49:59;;;;;;;;;;;;;;;22.95;59.16;98972.66;5092575;28;19916;-41
2023/06/11 03:52:24;;;;;;;;;;;;;;;22.96;59.30;98972.38;5092751;28;19912;-40
2023/06/11 03:54:50;;;;;;;;;;;;;;;22.89;59.43;98974.69;5092594;28;20414;-40
2023/06/11 03:57:17;;;;;;;;;;;;;;;22.83;59.80;98970.47;5092124;28;19912;-40
2023/06/11 03:59:43;;;;;;;;;;;;;;;22.96;59.59;98976.97;5092310;28;19939;-40
2023/06/11 04:02:08;;;;;;;;;;;;;;;22.62;60.46;98970.09;5092235;28;20352;-40
2023/06/11 04:04:33;;;;;;;;;;;;;;;22.66;60.27;98976.50;5092196;28;20007;-40
2023/06/11 04:06:58;;;;;;;;;;;;;;;22.72;60.62;98969.88;5091616;28;20057;-40
2023/06/11 04:09:24;;;;;;;;;;;;;;;23.30;59.32;98975.72;5092353;28;19959;-41
2023/06/11 04:11:50;;;;;;;;;;;;;;;23.62;57.70;98980.13;5092376;28;20030;-41
2023/06/11 04:14:15;;;;;;;;;;;;;;;23.91;56.89;98984.34;5092257;28;19954;-41
2023/06/11 04:16:40;;;;;;;;;;;;;;;24.35;55.83;98972.59;5092491;28;20003;-42
2023/06/11 04:19:06;;;;;;;;;;;;;;;24.65;54.86;98980.25;5092137;28;20429;-41
2023/06/11 04:21:31;;;;;;;;;;;;;;;24.58;53.81;98978.00;5091891;28;19919;-41
2023/06/11 04:23:56;;;;;;;;;;;;;;;24.63;54.45;98986.00;5091983;28;19919;-42
2023/06/11 04:26:23;;;;;;;;;;;;;;;25.17;51.68;98974.91;5091657;28;20356;-41
2023/06/11 04:28:49;;;;;;;;;;;;;;;25.31;51.87;98980.22;5091755;28;19920;-41
2023/06/11 04:31:14;;;;;;;;;;;;;;;25.53;51.20;98971.91;5091079;28;20233;-42
2023/06/11 04:33:40;;;;;;;;;;;;;;;25.93;50.21;98971.72;5090888;28;20000;-42
2023/06/11 04:36:09;;;;;;;;;;;;;;;26.24;49.49;98975.31;5090820;28;19936;-42
2023/06/11 04:38:37;;;;;;;;;;;;;;;26.25;49.65;98974.16;5090968;28;19912;-42
2023/06/11 04:41:05;;;;;;;;;;;;;;;26.64;48.74;98969.56;5090692;28;19916;-41
2023/06/11 04:43:33;;;;;;;;;;;;;;;26.91;47.62;98966.31;5090629;28;19916;-42
2023/06/11 04:46:04;;;;;;;;;;;;;;;26.81;47.31;98980.38;5090622;28;19912;-42
2023/06/11 04:48:31;;;;;;;;;;;;;;;26.43;48.19;98978.44;5090780;28;19969;-41
2023/06/11 04:50:57;;;;;;;;;;;;;;;26.84;46.88;98978.88;5090140;28;20028;-43
2023/06/11 04:53:22;;;;;;;;;;;;;;;26.93;46.57;98982.38;5090485;28;20035;-43
2023/06/11 04:55:54;;;;;;;;;;;;;;;26.40;47.36;98976.34;5090549;28;19912;-43
2023/06/11 04:58:21;;;;;;;;;;;;;;;26.15;48.62;98983.50;5090529;28;19930;-43
2023/06/11 05:00:49;;;;;;;;;;;;;;;25.92;48.86;98982.94;5090293;28;19912;-43
2023/06/11 05:03:16;;;;;;;;;;;;;;;25.73;49.34;98975.06;5090041;28;19916;-43
2023/06/11 05:05:42;;;;;;;;;;;;;;;25.97;49.44;98981.94;5089705;28;19981;-42
2023/06/11 05:08:08;;;;;;;;;;;;;;;26.00;49.15;98976.66;5090226;28;19935;-42
2023/06/11 05:10:33;;;;;;;;;;;;;;;25.93;49.08;98981.78;5090177;28;20356;-42
2023/06/11 05:12:58;;;;;;;;;;;;;;;26.46;48.11;98985.16;5090371;28;19967;-42
2023/06/11 05:15:23;;;;;;;;;;;;;;;26.20;48.39;98980.63;5089944;28;19916;-42
2023/06/11 05:17:49;;;;;;;;;;;;;;;25.84;49.73;98981.00;5088313;28;19954;-42
2023/06/11 05:20:14;;;;;;;;;;;;;;;26.01;49.18;98980.16;5089323;28;19916;-41
2023/06/11 05:22:40;;;;;;;;;;;;;;;25.48;50.36;98984.88;5089003;28;19916;-42
2023/06/11 05:25:06;;;;;;;;;;;;;;;25.89;49.63;98983.53;5089856;28;19963;-41
2023/06/11 05:27:31;;;;;;;;;;;;;;;26.47;48.54;98987.56;5089587;28;20394;-42
2023/06/11 05:29:57;;;;;;;;;;;;;;;26.70;48.13;98988.13;5089449;28;20323;-43
2023/06/11 05:32:22;;;;;;;;;;;;;;;26.41;48.30;98988.88;5024166;28;1863994;-42
2023/06/11 05:34:49;;;;;;;;;;;;;;;26.41;48.30;98990.81;5090684;28;19916;-42
2023/06/11 05:37:15;;;;;;;;;;;;;;;26.67;47.81;98994.25;5090733;28;19916;-42
2023/06/11 05:39:40;;;;;;;;;;;;;;;27.29;46.21;98994.69;5090974;28;19914;-42
2023/06/11 05:42:06;;;;;;;;;;;;;;;27.58;45.68;98993.78;5091001;28;19920;-41
2023/06/11 05:44:31;;;;;;;;;;;;;;;27.14;46.62;98985.13;5091175;28;19950;-42
2023/06/11 05:46:57;;;;;;;;;;;;;;;27.08;46.91;98994.66;5091324;28;20381;-44
2023/06/11 05:49:22;;;;;;;;;;;;;;;27.60;49.24;98994.25;5090984;28;20383;-42
2023/06/11 05:51:47;;;;;;;;;;;;;;;28.19;46.49;98995.16;5091011;28;19935;-43
2023/06/11 05:54:13;;;;;;;;;;;;;;;28.73;44.06;98997.75;5090840;28;20276;-43
2023/06/11 05:56:38;;;;;;;;;;;;;;;28.42;43.53;98999.06;5091026;28;19912;-42
2023/06/11 05:59:03;;;;;;;;;;;;;;;29.04;43.10;99001.81;5090706;28;20292;-44
2023/06/11 06:01:32;;;;;;;;;;;;;;;28.36;43.55;99003.16;5091073;28;19999;-43
2023/06/11 06:03:58;;;;;;;;;;;;;;;28.75;42.67;98998.19;5091224;28;19912;-45
2023/06/11 06:06:23;;;;;;;;;;;;;;;28.90;42.96;98987.66;5091136;28;20253;-41
2023/06/11 06:08:48;;;;;;;;;;;;;;;28.92;44.75;98996.34;5091176;28;19916;-43
2023/06/11 06:11:13;;;;;;;;;;;;;;;29.42;42.65;98995.94;5090775;28;20007;-42
2023/06/11 06:13:39;;;;;;;;;;;;;;;28.81;42.97;98994.06;5090654;28;19912;-42
2023/06/11 06:16:05;;;;;;;;;;;;;;;28.66;42.34;98994.78;5090645;28;19955;-40
2023/06/11 06:18:32;;;;;;;;;;;;;;;29.23;42.78;98991.06;5090627;28;19913;-41
2023/06/11 06:20:57;;;;;;;;;;;;;;;29.68;41.11;98994.66;5090582;28;20307;-41
2023/06/11 06:23:22;;;;;;;;;;;;;;;30.21;40.65;98995.34;5089775;28;20383;-42
2023/06/11 06:25:48;;;;;;;;;;;;;;;30.23;39.89;98997.72;5090582;28;19947;-41
2023/06/11 06:28:14;;;;;;;;;;;;;;;30.37;39.31;98992.63;5090621;28;19951;-42
2023/06/11 06:30:39;;;;;;;;;;;;;;;30.67;38.68;98996.84;5092678;28;20391;-42
2023/06/11 06:33:05;;;;;;;;;;;;;;;30.19;38.47;98994.88;5094174;28;19923;-42
2023/06/11 06:35:32;;;;;;;;;;;;;;;30.39;39.28;98998.56;5093761;28;19955;-41
2023/06/11 06:37:58;;;;;;;;;;;;;;;29.74;39.57;99000.72;5093494;28;19951;-41
2023/06/11 06:40:23;;;;;;;;;;;;;;;29.31;40.10;98997.56;5093769;28;19962;-43
2023/06/11 06:42:48;;;;;;;;;;;;;;;28.88;41.33;98998.97;5093361;28;19912;-42
2023/06/11 06:45:13;;;;;;;;;;;;;;;28.77;40.58;98997.81;5093501;28;20282;-41
2023/06/11 06:47:39;;;;;;;;;;;;;;;29.39;40.09;98993.88;5093372;28;19912;-42
2023/06/11 06:50:04;;;;;;;;;;;;;;;29.42;39.79;98992.41;5092940;28;19916;-42
2023/06/11 06:52:29;;;;;;;;;;;;;;;29.32;39.80;98990.94;5092941;28;19912;-42
2023/06/11 06:54:55;;;;;;;;;;;;;;;29.56;39.39;98995.53;5093252;28;19954;-40
2023/06/11 06:57:20;;;;;;;;;;;;;;;29.89;39.02;98996.44;5093083;28;20321;-42
2023/06/11 06:59:45;;;;;;;;;;;;;;;30.83;37.60;98991.34;5092805;28;19912;-41
2023/06/11 07:02:11;;;;;;;;;;;;;;;30.32;38.13;98983.88;5093321;28;19915;-41
2023/06/11 07:04:36;;;;;;;;;;;;;;;30.20;37.38;98984.72;5092941;28;19919;-41
2023/06/11 07:07:01;;;;;;;;;;;;;;;30.00;37.87;98987.34;5092977;28;19912;-41
2023/06/11 07:09:27;;;;;;;;;;;;;;;30.64;36.61;98981.13;5092963;28;19916;-41
2023/06/11 07:11:52;;;;;;;;;;;;;;;30.48;36.59;98981.94;5093210;28;19923;-41
2023/06/11 07:14:18;;;;;;;;;;;;;;;30.62;36.65;98981.47;5092820;28;19912;-42
2023/06/11 07:16:43;;;;;;;;;;;;;;;30.59;36.74;98985.69;5092761;28;20019;-41
2023/06/11 07:19:09;;;;;;;;;;;;;;;30.44;36.97;98991.22;5092653;28;20002;-41
2023/06/11 07:21:36;;;;;;;;;;;;;;;30.50;36.75;98990.59;5092776;28;20341;-42
2023/06/11 07:24:04;;;;;;;;;;;;;;;30.33;37.00;98980.78;5092126;28;19912;-41
2023/06/11 07:26:30;;;;;;;;;;;;;;;29.87;37.58;98985.81;5092648;28;19919;-44
2023/06/11 07:28:55;;;;;;;;;;;;;;;30.01;37.71;98980.72;5092764;28;19924;-41
2023/06/11 07:31:20;;;;;;;;;;;;;;;31.09;36.04;98985.28;5092524;28;19928;-41
2023/06/11 07:33:47;;;;;;;;;;;;;;;31.88;35.31;98986.91;5091482;28;19977;-43
2023/06/11 07:36:12;;;;;;;;;;;;;;;31.67;35.42;98977.06;5091744;28;19923;-42
2023/06/11 07:38:38;;;;;;;;;;;;;;;31.55;35.25;98982.75;5091893;28;19912;-42
2023/06/11 07:41:03;;;;;;;;;;;;;;;32.37;34.85;98982.63;5090660;28;19912;-42
2023/06/11 07:43:28;;;;;;;;;;;;;;;32.72;34.59;98979.69;5091066;28;20015;-42
2023/06/11 07:45:54;;;;;;;;;;;;;;;32.59;34.14;98973.59;5091870;28;19919;-43
2023/06/11 07:48:19;;;;;;;;;;;;;;;32.79;34.40;98977.06;5091640;28;19912;-42
2023/06/11 07:50:44;;;;;;;;;;;;;;;33.35;33.44;98969.16;5091607;28;20284;-41
2023/06/11 07:53:12;;;;;;;;;;;;;;;33.80;33.31;98976.38;5091838;28;19947;-42
2023/06/11 07:55:38;;;;;;;;;;;;;;;34.70;31.63;98974.44;5091731;28;20425;-40
2023/06/11 07:58:03;;;;;;;;;;;;;;;35.10;29.74;98980.19;5091782;28;19912;-42
2023/06/11 08:00:28;;;;;;;;;;;;;;;34.14;30.49;98972.75;5091805;28;19930;-41
2023/06/11 08:02:54;;;;;;;;;;;;;;;34.88;30.12;98977.31;5091701;28;20358;-42
2023/06/11 08:05:19;;;;;;;;;;;;;;;35.48;29.19;98972.47;5091641;28;19963;-42
2023/06/11 08:07:46;;;;;;;;;;;;;;;35.69;28.63;98974.53;5091451;28;19919;-42
2023/06/11 08:10:11;;;;;;;;;;;;;;;35.15;28.19;98972.31;5091453;28;20420;-41
2023/06/11 08:12:36;;;;;;;;;;;;;;;34.08;29.16;98966.78;5091700;28;19916;-42
2023/06/11 08:15:02;;;;;;;;;;;;;;;33.82;30.20;98970.50;5091746;28;19920;-42
2023/06/11 08:17:27;;;;;;;;;;;;;;;34.23;29.61;98967.72;5091448;28;19912;-43
2023/06/11 08:19:52;;;;;;;;;;;;;;;34.68;28.45;98965.75;5091592;28;20014;-42
2023/06/11 08:22:18;;;;;;;;;;;;;;;34.92;27.85;98969.03;5091554;28;19912;-40
2023/06/11 08:24:43;;;;;;;;;;;;;;;34.54;29.52;98963.66;5091040;28;20367;-41
2023/06/11 08:27:09;;;;;;;;;;;;;;;35.47;28.29;98965.34;5091012;28;19954;-41
2023/06/11 08:29:35;;;;;;;;;;;;;;;35.96;27.70;98963.91;5091268;28;20007;-42
2023/06/11 08:32:00;;;;;;;;;;;;;;;36.34;27.56;98965.13;5090645;28;19960;-41
2023/06/11 08:34:25;;;;;;;;;;;;;;;36.81;27.28;98967.88;5090779;28;19912;-41
2023/06/11 08:36:51;;;;;;;;;;;;;;;37.12;26.47;98968.19;5089631;28;19913;-41
2023/06/11 08:39:16;;;;;;;;;;;;;;;37.10;26.02;98967.78;5090661;28;20284;-41
2023/06/11 08:41:42;;;;;;;;;;;;;;;37.29;24.92;98967.34;5090696;28;20342;-41
2023/06/11 08:44:07;;;;;;;;;;;;;;;37.16;24.69;98971.75;5090570;28;19912;-42
2023/06/11 08:46:34;;;;;;;;;;;;;;;36.01;25.56;98972.63;5090634;28;19916;-42
2023/06/11 08:49:04;;;;;;;;;;;;;;;35.54;26.82;98976.44;5090532;28;20371;-41
2023/06/11 08:51:33;;;;;;;;;;;;;;;35.72;26.33;98976.50;5090695;28;19912;-42
2023/06/11 08:53:59;;;;;;;;;;;;;;;35.47;25.73;98970.88;5090188;28;19920;-42
2023/06/11 08:56:26;;;;;;;;;;;;;;;33.69;28.17;98970.75;5090527;28;19916;-42
2023/06/11 08:58:52;;;;;;;;;;;;;;;34.31;26.23;98963.06;5090559;28;19919;-43
2023/06/11 09:01:20;;;;;;;;;;;;;;;33.91;26.98;98970.16;5090622;28;20487;-43
2023/06/11 09:03:46;;;;;;;;;;;;;;;33.87;26.40;98965.44;5090557;28;20006;-43
2023/06/11 09:06:11;;;;;;;;;;;;;;;33.75;26.74;98965.69;5090126;28;20410;-42
2023/06/11 09:08:36;;;;;;;;;;;;;;;34.25;27.06;98963.44;5089904;28;19912;-43
2023/06/11 09:11:04;;;;;;;;;;;;;;;34.14;27.91;98961.72;5088195;28;19921;-41
2023/06/11 09:13:29;;;;;;;;;;;;;;;35.00;26.00;98951.31;5089781;28;19912;-42
2023/06/11 09:15:58;;;;;;;;;;;;;;;35.55;25.84;98950.38;5089649;28;19920;-42
2023/06/11 09:18:25;;;;;;;;;;;;;;;36.24;25.06;98940.25;5090260;28;19916;-42
2023/06/11 09:20:51;;;;;;;;;;;;;;;35.97;24.54;98951.66;5090666;28;19942;-43
2023/06/11 09:23:30;;;;;;;;;;;;;;;34.34;25.59;98962.31;5089931;28;19916;-43
2023/06/11 09:25:55;;;;;;;;;;;;;;;33.64;26.25;98953.75;5090222;28;20003;-42
2023/06/11 09:28:27;;;;;;;;;;;;;;;33.53;26.99;98947.28;5090119;28;19944;-42
2023/06/11 09:30:53;;;;;;;;;;;;;;;34.22;25.95;98946.84;5090201;28;20355;-42
2023/06/11 09:33:18;;;;;;;;;;;;;;;34.14;26.67;98945.97;5090249;28;19992;-42
2023/06/11 09:35:46;;;;;;;;;;;;;;;34.99;26.59;98939.47;5090570;28;20359;-42
2023/06/11 09:38:18;;;;;;;;;;;;;;;36.04;25.56;98932.28;5090755;28;19927;-43
2023/06/11 09:40:50;;;;;;;;;;;;;;;36.76;23.54;98930.28;5090474;28;19920;-43
2023/06/11 09:43:21;;;;;;;;;;;;;;;36.14;24.04;98931.50;5088640;28;20462;-41
2023/06/11 09:45:52;;;;;;;;;;;;;;;35.46;24.66;98952.72;5089985;28;20012;-43
2023/06/11 09:48:17;;;;;;;;;;;;;;;34.17;26.62;98931.41;5090105;28;19912;-43
2023/06/11 09:50:43;;;;;;;;;;;;;;;34.12;26.33;98931.75;5089866;28;19916;-43
2023/06/11 09:53:10;;;;;;;;;;;;;;;34.39;26.15;98931.59;5089917;28;19916;-43
2023/06/11 09:55:36;;;;;;;;;;;;;;;32.87;27.25;98936.63;5089733;28;19911;-41
2023/06/11 09:58:04;;;;;;;;;;;;;;;31.76;29.30;98927.34;5089797;28;19912;-42
2023/06/11 10:00:30;;;;;;;;;;;;;;;30.93;30.75;98919.41;5089866;28;20003;-41
2023/06/11 10:02:56;;;;;;;;;;;;;;;31.01;30.79;98928.59;5089900;28;19947;-41
2023/06/11 10:05:21;;;;;;;;;;;;;;;32.09;29.07;98909.47;5092394;28;20458;-43
2023/06/11 10:07:48;;;;;;;;;;;;;;;32.60;28.69;98911.88;5093891;28;19992;-42
2023/06/11 10:10:15;;;;;;;;;;;;;;;31.80;29.76;98908.19;5093530;28;19927;-41
2023/06/11 10:12:40;;;;;;;;;;;;;;;31.44;29.14;98915.75;5093814;28;19924;-42
2023/06/11 10:15:09;;;;;;;;;;;;;;;32.24;28.49;98899.50;5093652;28;19912;-42
2023/06/11 10:17:35;;;;;;;;;;;;;;;32.42;28.10;98908.81;5093585;28;19919;-43
2023/06/11 10:20:00;;;;;;;;;;;;;;;33.04;27.92;98908.50;5093355;28;19924;-41
2023/06/11 10:22:33;;;;;;;;;;;;;;;32.51;28.20;98906.59;5093376;28;20011;-43
2023/06/11 10:25:00;;;;;;;;;;;;;;;32.58;28.57;98902.38;5093550;28;20336;-42
2023/06/11 10:27:35;;;;;;;;;;;;;;;32.69;29.17;98912.38;5093633;28;19919;-42
2023/06/11 10:30:00;;;;;;;;;;;;;;;33.08;27.46;98898.31;5093373;28;19928;-43
2023/06/11 10:32:26;;;;;;;;;;;;;;;33.61;27.55;98904.84;5093111;28;19924;-43
2023/06/11 10:34:58;;;;;;;;;;;;;;;33.08;26.38;98903.03;5093334;28;20300;-42
2023/06/11 10:37:27;;;;;;;;;;;;;;;32.32;27.97;98910.22;5093224;28;19917;-42
2023/06/11 10:39:54;;;;;;;;;;;;;;;32.12;27.91;98900.47;5093461;28;19919;-41
2023/06/11 10:42:35;;;;;;;;;;;;;;;33.37;27.13;98890.41;5093523;28;19919;-42
2023/06/11 10:45:05;;;;;;;;;;;;;;;33.89;25.62;98896.06;5092583;28;19912;-41
2023/06/11 10:47:39;;;;;;;;;;;;;;;33.10;26.87;98896.00;5093090;28;20006;-41
2023/06/11 10:50:09;;;;;;;;;;;;;;;33.80;27.13;98885.34;5092812;28;19916;-43
2023/06/11 10:52:50;;;;;;;;;;;;;;;34.65;25.34;98891.88;5093141;28;19946;-42
2023/06/11 10:55:17;;;;;;;;;;;;;;;33.44;27.66;98898.75;5092792;28;19994;-41
2023/06/11 10:57:42;;;;;;;;;;;;;;;33.80;27.69;98901.13;5092967;28;19912;-41
2023/06/11 11:00:09;;;;;;;;;;;;;;;33.73;27.70;98899.06;5092735;28;20404;-42
2023/06/11 11:02:34;;;;;;;;;;;;;;;34.27;27.98;98881.03;5092678;28;20030;-42
2023/06/11 11:04:59;;;;;;;;;;;;;;;34.82;26.31;98887.66;5093012;28;20505;-42
2023/06/11 11:07:33;;;;;;;;;;;;;;;34.95;26.01;98886.16;5092589;28;19920;-42
2023/06/11 11:09:59;;;;;;;;;;;;;;;35.26;25.76;98883.91;5092825;28;19916;-41
2023/06/11 11:12:24;;;;;;;;;;;;;;;34.45;26.66;98883.88;5092751;28;19912;-41
2023/06/11 11:14:50;;;;;;;;;;;;;;;34.13;25.90;98885.63;5091107;28;20445;-42
2023/06/11 11:17:15;;;;;;;;;;;;;;;33.22;27.68;98881.19;5091284;28;19916;-42
2023/06/11 11:19:41;;;;;;;;;;;;;;;33.24;27.11;98881.63;5090929;28;20383;-41
2023/06/11 11:22:06;;;;;;;;;;;;;;;32.85;27.75;98878.34;5093044;28;19912;-42
2023/06/11 11:24:35;;;;;;;;;;;;;;;33.61;27.97;98880.03;5092899;28;20291;-41
2023/06/11 11:27:01;;;;;;;;;;;;;;;32.01;31.91;98886.53;5092797;28;19912;-42
2023/06/11 11:29:27;;;;;;;;;;;;;;;30.75;34.49;98895.09;5092320;28;19920;-42
2023/06/11 11:31:52;;;;;;;;;;;;;;;30.65;34.72;98892.88;5092583;28;20007;-42
2023/06/11 11:34:18;;;;;;;;;;;;;;;29.96;35.64;98884.19;5088010;28;19916;-42
2023/06/11 11:36:46;;;;;;;;;;;;;;;29.96;35.73;98887.72;5092462;28;20040;-41
2023/06/11 11:39:13;;;;;;;;;;;;;;;29.70;35.84;98887.41;5089571;28;19969;-42
2023/06/11 11:41:46;;;;;;;;;;;;;;;29.60;35.71;98886.78;5092155;28;19922;-42
2023/06/11 11:44:14;;;;;;;;;;;;;;;29.69;36.29;98888.59;5089267;28;19934;-43
2023/06/11 11:46:39;;;;;;;;;;;;;;;29.72;36.53;98879.63;5091473;28;19916;-42
2023/06/11 11:49:06;;;;;;;;;;;;;;;29.73;35.98;98881.28;5091889;28;19938;-43
2023/06/11 11:51:35;;;;;;;;;;;;;;;29.21;36.79;98899.44;5092143;28;19912;-42
2023/06/11 11:54:01;;;;;;;;;;;;;;;28.98;37.03;98882.72;5092114;28;19923;-42
2023/06/11 11:56:31;;;;;;;;;;;;;;;29.07;37.15;98877.09;5091985;28;20339;-42
2023/06/11 11:58:56;;;;;;;;;;;;;;;28.94;37.61;98874.41;5092002;28;19912;-43
2023/06/11 12:01:21;;;;;;;;;;;;;;;29.15;37.04;98878.91;5090256;28;20023;-42
2023/06/11 12:04:00;;;;;;;;;;;;;;;29.47;36.10;98868.81;5091153;28;19980;-42
2023/06/11 12:06:26;;;;;;;;;;;;;;;30.04;35.77;98885.16;5090160;28;19977;-41
2023/06/11 12:08:51;;;;;;;;;;;;;;;29.76;35.49;98886.06;5089755;28;20337;-42
2023/06/11 12:11:16;;;;;;;;;;;;;;;29.75;35.06;98878.97;5091333;28;19912;-42
2023/06/11 12:13:42;;;;;;;;;;;;;;;29.48;35.04;98889.59;5091220;28;19935;-43
2023/06/11 12:16:07;;;;;;;;;;;;;;;28.83;35.55;98887.75;5091491;28;19912;-42
2023/06/11 12:18:32;;;;;;;;;;;;;;;29.13;35.95;98892.16;5091577;28;19912;-41
2023/06/11 12:20:58;;;;;;;;;;;;;;;28.91;36.68;98886.03;5091322;28;20242;-41
2023/06/11 12:23:23;;;;;;;;;;;;;;;29.67;35.77;98879.91;5091118;28;19977;-41
2023/06/11 12:25:48;;;;;;;;;;;;;;;29.23;35.89;98888.94;5091212;28;19913;-42
2023/06/11 12:28:14;;;;;;;;;;;;;;;29.02;36.40;98880.88;5090318;28;19943;-43
2023/06/11 12:30:40;;;;;;;;;;;;;;;28.85;36.20;98881.94;5090281;28;19924;-42
2023/06/11 12:33:05;;;;;;;;;;;;;;;29.78;35.57;98872.78;5090688;28;20356;-43
2023/06/11 12:35:31;;;;;;;;;;;;;;;29.72;35.03;98874.16;5089781;28;19993;-41
2023/06/11 12:37:56;;;;;;;;;;;;;;;29.48;34.38;98875.91;5089326;28;19916;-42
2023/06/11 12:40:22;;;;;;;;;;;;;;;29.49;34.25;98876.69;5090882;28;20388;-42
2023/06/11 12:42:49;;;;;;;;;;;;;;;29.21;34.26;98883.78;5091535;28;19927;-43